createdAt,value
2017-06-28T00:00:29.236Z,0
2017-06-28T00:01:28.587Z,0
2017-06-28T00:02:29.225Z,0
2017-06-28T00:03:28.578Z,0
2017-06-28T00:04:28.897Z,0
2017-06-28T00:05:29.239Z,0
2017-06-28T00:06:28.881Z,0
2017-06-28T00:07:28.872Z,0
2017-06-28T00:08:28.572Z,0
2017-06-28T00:09:28.862Z,0
2017-06-28T00:10:28.853Z,0
2017-06-28T00:11:28.529Z,0
2017-06-28T00:12:28.846Z,0
2017-06-28T00:13:28.881Z,0
2017-06-28T00:14:28.850Z,0
2017-06-28T00:15:28.830Z,0
2017-06-28T00:16:28.539Z,0
2017-06-28T00:17:28.827Z,0
2017-06-28T00:18:28.842Z,0
2017-06-28T00:19:29.130Z,0
2017-06-28T00:20:28.161Z,0
2017-06-28T00:21:28.530Z,0
2017-06-28T00:22:29.112Z,0
2017-06-28T00:23:28.804Z,0
2017-06-28T00:24:28.803Z,0
2017-06-28T00:25:29.116Z,0
2017-06-28T00:26:28.140Z,0
2017-06-28T00:27:29.100Z,0
2017-06-28T00:28:28.787Z,0
2017-06-28T00:29:28.441Z,0
2017-06-28T00:30:28.503Z,0
2017-06-28T00:31:28.118Z,0
2017-06-28T00:32:28.731Z,0
2017-06-28T00:33:29.103Z,0
2017-06-28T00:34:29.063Z,0
2017-06-28T00:35:29.070Z,0
2017-06-28T00:36:29.043Z,0
2017-06-28T00:37:29.046Z,0
2017-06-28T00:38:28.385Z,0
2017-06-28T00:39:28.718Z,0
2017-06-28T00:40:28.709Z,0
2017-06-28T00:41:28.065Z,0
2017-06-28T00:42:29.038Z,0
2017-06-28T00:43:28.685Z,0
2017-06-28T00:44:29.015Z,0
2017-06-28T00:45:29.000Z,0
2017-06-28T00:46:28.387Z,0
2017-06-28T00:47:28.677Z,0
2017-06-28T00:48:28.341Z,0
2017-06-28T00:49:28.318Z,0
2017-06-28T00:50:28.314Z,0
2017-06-28T00:51:28.653Z,0
2017-06-28T00:52:28.639Z,0
2017-06-28T00:53:28.621Z,0
2017-06-28T00:54:28.614Z,0
2017-06-28T00:55:28.376Z,0
2017-06-28T00:56:27.639Z,0
2017-06-28T00:57:28.599Z,0
2017-06-28T00:58:28.953Z,0
2017-06-28T00:59:28.291Z,0
2017-06-28T01:00:28.261Z,0
2017-06-28T01:01:28.570Z,0
2017-06-28T01:02:28.260Z,0
2017-06-28T01:03:28.575Z,0
2017-06-28T01:04:28.246Z,0
2017-06-28T01:05:28.546Z,0
2017-06-28T01:06:28.861Z,0
2017-06-28T01:07:28.546Z,0
2017-06-28T01:08:27.942Z,0
2017-06-28T01:09:28.537Z,0
2017-06-28T01:10:28.839Z,0
2017-06-28T01:11:28.840Z,0
2017-06-28T01:12:28.862Z,0
2017-06-28T01:13:28.216Z,0
2017-06-28T01:14:28.519Z,0
2017-06-28T01:15:28.499Z,0
2017-06-28T01:16:28.231Z,0
2017-06-28T01:17:28.176Z,0
2017-06-28T01:18:28.492Z,0
2017-06-28T01:19:28.190Z,0
2017-06-28T01:20:28.467Z,0
2017-06-28T01:21:28.780Z,0
2017-06-28T01:22:28.138Z,0
2017-06-28T01:23:28.779Z,0
2017-06-28T01:24:28.762Z,0
2017-06-28T01:25:28.759Z,0
2017-06-28T01:26:28.103Z,0
2017-06-28T01:27:28.105Z,0
2017-06-28T01:28:28.427Z,0
2017-06-28T01:29:28.426Z,0
2017-06-28T01:30:28.086Z,0
2017-06-28T01:31:28.099Z,0
2017-06-28T01:32:28.419Z,0
2017-06-28T01:33:28.079Z,0
2017-06-28T01:34:28.716Z,0
2017-06-28T01:35:28.402Z,0
2017-06-28T01:36:28.369Z,0
2017-06-28T01:37:28.379Z,0
2017-06-28T01:38:28.034Z,0
2017-06-28T01:39:28.358Z,0
2017-06-28T01:40:28.341Z,0
2017-06-28T01:41:28.345Z,0
2017-06-28T01:42:28.008Z,0
2017-06-28T01:43:28.351Z,0
2017-06-28T01:44:28.666Z,0
2017-06-28T01:45:28.678Z,0
2017-06-28T01:46:28.313Z,0
2017-06-28T01:47:27.671Z,0
2017-06-28T01:48:28.312Z,0
2017-06-28T01:49:27.986Z,0
2017-06-28T01:50:28.299Z,0
2017-06-28T01:51:28.296Z,0
2017-06-28T01:52:28.294Z,0
2017-06-28T01:53:28.597Z,0
2017-06-28T01:54:28.285Z,0
2017-06-28T01:55:28.260Z,0
2017-06-28T01:56:28.246Z,0
2017-06-28T01:57:27.283Z,0
2017-06-28T01:58:28.601Z,0
2017-06-28T01:59:27.927Z,0
2017-06-28T02:00:27.913Z,0
2017-06-28T02:01:28.218Z,0
2017-06-28T02:02:28.219Z,0
2017-06-28T02:03:28.539Z,0
2017-06-28T02:04:27.901Z,0
2017-06-28T02:05:28.221Z,0
2017-06-28T02:06:28.192Z,0
2017-06-28T02:07:28.236Z,0
2017-06-28T02:08:28.505Z,0
2017-06-28T02:09:28.580Z,0
2017-06-28T02:10:28.165Z,0
2017-06-28T02:11:27.838Z,0
2017-06-28T02:12:28.174Z,0
2017-06-28T02:13:28.477Z,0
2017-06-28T02:14:28.487Z,0
2017-06-28T02:15:27.821Z,0
2017-06-28T02:16:28.176Z,0
2017-06-28T02:17:28.454Z,0
2017-06-28T02:18:28.122Z,0
2017-06-28T02:19:28.456Z,0
2017-06-28T02:20:28.116Z,0
2017-06-28T02:21:28.445Z,0
2017-06-28T02:22:28.114Z,0
2017-06-28T02:23:27.837Z,0
2017-06-28T02:24:28.139Z,0
2017-06-28T02:25:28.098Z,0
2017-06-28T02:26:28.120Z,0
2017-06-28T02:27:27.767Z,0
2017-06-28T02:28:27.417Z,0
2017-06-28T02:29:28.058Z,0
2017-06-28T02:30:27.756Z,0
2017-06-28T02:31:27.090Z,0
2017-06-28T02:32:28.364Z,0
2017-06-28T02:33:28.370Z,0
2017-06-28T02:34:28.041Z,0
2017-06-28T02:35:28.018Z,0
2017-06-28T02:36:27.398Z,0
2017-06-28T02:37:28.005Z,0
2017-06-28T02:38:27.730Z,0
2017-06-28T02:39:27.672Z,0
2017-06-28T02:40:27.995Z,0
2017-06-28T02:41:28.035Z,0
2017-06-28T02:42:27.343Z,0
2017-06-28T02:43:27.980Z,0
2017-06-28T02:44:27.652Z,0
2017-06-28T02:45:27.955Z,0
2017-06-28T02:46:27.957Z,0
2017-06-28T02:47:28.334Z,0
2017-06-28T02:48:28.265Z,0
2017-06-28T02:49:28.015Z,0
2017-06-28T02:50:28.246Z,0
2017-06-28T02:51:27.600Z,0
2017-06-28T02:52:28.272Z,0
2017-06-28T02:53:28.228Z,5
2017-06-28T02:54:27.922Z,5
2017-06-28T02:55:26.956Z,5
2017-06-28T02:56:27.619Z,5
2017-06-28T02:57:27.564Z,5
2017-06-28T02:58:27.563Z,5
2017-06-28T02:59:27.876Z,5
2017-06-28T03:00:27.868Z,10
2017-06-28T03:01:28.195Z,10
2017-06-28T03:02:27.214Z,10
2017-06-28T03:03:27.546Z,10
2017-06-28T03:04:28.179Z,10
2017-06-28T03:05:27.214Z,10
2017-06-28T03:06:27.203Z,15
2017-06-28T03:07:27.541Z,15
2017-06-28T03:08:27.197Z,15
2017-06-28T03:09:28.138Z,20
2017-06-28T03:10:28.230Z,20
2017-06-28T03:11:28.141Z,20
2017-06-28T03:12:27.838Z,20
2017-06-28T03:13:27.838Z,20
2017-06-28T03:14:28.123Z,25
2017-06-28T03:15:27.785Z,25
2017-06-28T03:16:27.131Z,25
2017-06-28T03:17:27.790Z,25
2017-06-28T03:18:28.116Z,30
2017-06-28T03:19:27.489Z,30
2017-06-28T03:20:28.101Z,30
2017-06-28T03:21:27.108Z,35
2017-06-28T03:22:27.779Z,35
2017-06-28T03:23:27.158Z,35
2017-06-28T03:24:27.103Z,35
2017-06-28T03:25:27.740Z,40
2017-06-28T03:26:27.401Z,40
2017-06-28T03:27:28.044Z,40
2017-06-28T03:28:27.712Z,40
2017-06-28T03:29:27.707Z,45
2017-06-28T03:30:27.409Z,45
2017-06-28T03:31:27.690Z,45
2017-06-28T03:32:28.034Z,45
2017-06-28T03:33:28.006Z,50
2017-06-28T03:34:27.731Z,50
2017-06-28T03:35:27.668Z,55
2017-06-28T03:36:27.692Z,55
2017-06-28T03:37:27.354Z,60
2017-06-28T03:38:28.029Z,60
2017-06-28T03:39:27.673Z,60
2017-06-28T03:40:27.645Z,60
2017-06-28T03:41:27.319Z,65
2017-06-28T03:42:27.358Z,65
2017-06-28T03:43:27.686Z,65
2017-06-28T03:44:27.629Z,65
2017-06-28T03:45:27.306Z,65
2017-06-28T03:46:27.305Z,65
2017-06-28T03:47:27.303Z,65
2017-06-28T03:48:27.676Z,65
2017-06-28T03:49:27.664Z,65
2017-06-28T03:50:27.303Z,65
2017-06-28T03:51:27.593Z,65
2017-06-28T03:52:27.290Z,60
2017-06-28T03:53:28.227Z,65
2017-06-28T03:54:27.264Z,65
2017-06-28T03:55:28.685Z,60
2017-06-28T03:56:28.282Z,60
2017-06-28T03:57:27.753Z,55
2017-06-28T03:58:28.116Z,55
2017-06-28T03:59:27.816Z,55
2017-06-28T04:00:27.392Z,55
2017-06-28T04:01:27.451Z,55
2017-06-28T04:02:27.528Z,55
2017-06-28T04:03:28.293Z,60
2017-06-28T04:04:27.625Z,60
2017-06-28T04:05:28.040Z,65
2017-06-28T04:06:27.943Z,65
2017-06-28T04:07:27.842Z,65
2017-06-28T04:08:27.941Z,70
2017-06-28T04:09:27.186Z,70
2017-06-28T04:10:27.888Z,75
2017-06-28T04:11:27.286Z,75
2017-06-28T04:12:28.431Z,80
2017-06-28T04:13:27.811Z,80
2017-06-28T04:14:27.540Z,80
2017-06-28T04:15:28.217Z,85
2017-06-28T04:16:27.406Z,85
2017-06-28T04:17:27.136Z,90
2017-06-28T04:18:27.555Z,95
2017-06-28T04:19:28.368Z,100
2017-06-28T04:20:28.134Z,100
2017-06-28T04:21:27.938Z,100
2017-06-28T04:22:27.616Z,100
2017-06-28T04:23:27.640Z,100
2017-06-28T04:24:28.258Z,95
2017-06-28T04:25:27.073Z,95
2017-06-28T04:26:27.840Z,100
2017-06-28T04:27:27.145Z,105
2017-06-28T04:28:27.464Z,105
2017-06-28T04:29:27.470Z,105
2017-06-28T04:30:27.430Z,105
2017-06-28T04:31:27.101Z,105
2017-06-28T04:32:27.418Z,105
2017-06-28T04:33:27.430Z,100
2017-06-28T04:34:27.090Z,105
2017-06-28T04:35:27.729Z,110
2017-06-28T04:36:27.427Z,120
2017-06-28T04:37:27.416Z,125
2017-06-28T04:38:27.394Z,130
2017-06-28T04:39:27.426Z,135
2017-06-28T04:40:27.069Z,135
2017-06-28T04:41:27.401Z,135
2017-06-28T04:42:27.071Z,135
2017-06-28T04:43:27.076Z,130
2017-06-28T04:44:27.078Z,130
2017-06-28T04:45:27.046Z,135
2017-06-28T04:46:27.720Z,135
2017-06-28T04:47:27.698Z,140
2017-06-28T04:48:27.354Z,140
2017-06-28T04:49:27.046Z,140
2017-06-28T04:50:27.052Z,150
2017-06-28T04:51:27.391Z,165
2017-06-28T04:52:27.046Z,180
2017-06-28T04:53:27.348Z,195
2017-06-28T04:54:27.377Z,200
2017-06-28T04:55:27.655Z,200
2017-06-28T04:56:27.360Z,195
2017-06-28T04:57:27.012Z,190
2017-06-28T04:58:27.646Z,185
2017-06-28T04:59:27.010Z,185
2017-06-28T05:00:27.345Z,180
2017-06-28T05:01:27.326Z,175
2017-06-28T05:02:26.662Z,180
2017-06-28T05:03:27.361Z,180
2017-06-28T05:04:27.319Z,180
2017-06-28T05:05:27.640Z,185
2017-06-28T05:06:26.973Z,190
2017-06-28T05:07:27.642Z,200
2017-06-28T05:08:26.983Z,205
2017-06-28T05:09:27.618Z,215
2017-06-28T05:10:26.961Z,230
2017-06-28T05:11:27.291Z,250
2017-06-28T05:12:27.296Z,275
2017-06-28T05:13:27.284Z,285
2017-06-28T05:14:27.648Z,295
2017-06-28T05:15:26.952Z,300
2017-06-28T05:16:27.594Z,315
2017-06-28T05:17:27.270Z,335
2017-06-28T05:18:27.593Z,345
2017-06-28T05:19:26.965Z,355
2017-06-28T05:20:27.587Z,345
2017-06-28T05:21:27.583Z,335
2017-06-28T05:22:27.274Z,320
2017-06-28T05:23:27.580Z,290
2017-06-28T05:24:27.286Z,240
2017-06-28T05:25:27.252Z,225
2017-06-28T05:26:27.572Z,220
2017-06-28T05:27:26.927Z,225
2017-06-28T05:28:27.582Z,230
2017-06-28T05:29:27.257Z,230
2017-06-28T05:30:26.921Z,235
2017-06-28T05:31:27.238Z,230
2017-06-28T05:32:27.572Z,220
2017-06-28T05:33:27.251Z,200
2017-06-28T05:34:27.235Z,185
2017-06-28T05:35:26.909Z,195
2017-06-28T05:36:27.257Z,230
2017-06-28T05:37:26.923Z,280
2017-06-28T05:38:26.915Z,315
2017-06-28T05:39:27.237Z,295
2017-06-28T05:40:26.919Z,285
2017-06-28T05:41:27.546Z,295
2017-06-28T05:42:26.934Z,330
2017-06-28T05:43:27.262Z,365
2017-06-28T05:44:26.622Z,395
2017-06-28T05:45:27.242Z,415
2017-06-28T05:46:27.253Z,410
2017-06-28T05:47:27.544Z,370
2017-06-28T05:48:27.603Z,335
2017-06-28T05:49:27.556Z,370
2017-06-28T05:50:27.223Z,385
2017-06-28T05:51:27.212Z,365
2017-06-28T05:52:27.284Z,335
2017-06-28T05:53:27.220Z,315
2017-06-28T05:54:27.560Z,300
2017-06-28T05:55:27.213Z,275
2017-06-28T05:56:26.890Z,285
2017-06-28T05:57:27.541Z,295
2017-06-28T05:58:27.237Z,285
2017-06-28T05:59:27.213Z,285
2017-06-28T06:00:27.213Z,290
2017-06-28T06:01:27.557Z,305
2017-06-28T06:02:27.532Z,295
2017-06-28T06:03:27.229Z,285
2017-06-28T06:04:27.544Z,280
2017-06-28T06:05:27.543Z,280
2017-06-28T06:06:27.222Z,295
2017-06-28T06:07:27.214Z,320
2017-06-28T06:08:27.555Z,380
2017-06-28T06:09:26.595Z,440
2017-06-28T06:10:27.616Z,455
2017-06-28T06:11:27.232Z,460
2017-06-28T06:12:27.232Z,470
2017-06-28T06:13:27.220Z,485
2017-06-28T06:14:26.910Z,505
2017-06-28T06:15:27.221Z,510
2017-06-28T06:16:27.565Z,500
2017-06-28T06:17:27.542Z,460
2017-06-28T06:18:27.551Z,420
2017-06-28T06:19:27.220Z,410
2017-06-28T06:20:27.232Z,400
2017-06-28T06:21:26.581Z,385
2017-06-28T06:22:27.226Z,365
2017-06-28T06:23:27.554Z,335
2017-06-28T06:24:26.604Z,315
2017-06-28T06:25:26.288Z,320
2017-06-28T06:26:26.597Z,350
2017-06-28T06:27:27.592Z,365
2017-06-28T06:28:27.244Z,365
2017-06-28T06:29:26.614Z,390
2017-06-28T06:30:26.595Z,425
2017-06-28T06:31:26.917Z,450
2017-06-28T06:32:27.245Z,455
2017-06-28T06:33:26.594Z,445
2017-06-28T06:34:26.931Z,445
2017-06-28T06:35:27.565Z,425
2017-06-28T06:36:27.257Z,410
2017-06-28T06:37:27.568Z,430
2017-06-28T06:38:27.618Z,485
2017-06-28T06:39:26.931Z,460
2017-06-28T06:40:27.634Z,460
2017-06-28T06:41:27.271Z,465
2017-06-28T06:42:27.267Z,445
2017-06-28T06:43:26.638Z,480
2017-06-28T06:44:26.642Z,595
2017-06-28T06:45:26.946Z,690
2017-06-28T06:46:27.597Z,505
2017-06-28T06:47:26.983Z,450
2017-06-28T06:48:26.962Z,460
2017-06-28T06:49:27.601Z,415
2017-06-28T06:50:27.276Z,365
2017-06-28T06:51:27.650Z,350
2017-06-28T06:52:27.620Z,345
2017-06-28T06:53:26.961Z,320
2017-06-28T06:54:27.296Z,300
2017-06-28T06:55:27.608Z,295
2017-06-28T06:56:27.298Z,330
2017-06-28T06:57:26.712Z,385
2017-06-28T06:58:27.301Z,400
2017-06-28T06:59:27.326Z,370
2017-06-28T07:00:27.319Z,360
2017-06-28T07:01:26.991Z,370
2017-06-28T07:02:27.334Z,365
2017-06-28T07:03:26.675Z,360
2017-06-28T07:04:27.344Z,370
2017-06-28T07:05:27.637Z,385
2017-06-28T07:06:27.347Z,410
2017-06-28T07:07:27.019Z,380
2017-06-28T07:08:27.385Z,365
2017-06-28T07:09:27.330Z,380
2017-06-28T07:10:27.009Z,450
2017-06-28T07:11:27.347Z,545
2017-06-28T07:12:27.022Z,725
2017-06-28T07:13:27.026Z,690
2017-06-28T07:14:26.702Z,650
2017-06-28T07:15:27.359Z,635
2017-06-28T07:16:27.034Z,610
2017-06-28T07:17:27.671Z,680
2017-06-28T07:18:27.041Z,710
2017-06-28T07:19:27.680Z,790
2017-06-28T07:20:27.040Z,765
2017-06-28T07:21:27.362Z,760
2017-06-28T07:22:27.046Z,660
2017-06-28T07:23:27.706Z,770
2017-06-28T07:24:27.397Z,785
2017-06-28T07:25:27.396Z,790
2017-06-28T07:26:27.423Z,775
2017-06-28T07:27:27.399Z,720
2017-06-28T07:28:27.729Z,685
2017-06-28T07:29:27.420Z,660
2017-06-28T07:30:26.781Z,635
2017-06-28T07:31:27.805Z,630
2017-06-28T07:32:26.788Z,640
2017-06-28T07:33:27.138Z,645
2017-06-28T07:34:26.810Z,640
2017-06-28T07:35:27.774Z,630
2017-06-28T07:36:40.522Z,630
2017-06-28T07:37:27.162Z,640
2017-06-28T07:38:27.801Z,660
2017-06-28T07:39:27.891Z,470
2017-06-28T07:40:27.499Z,605
2017-06-28T07:41:26.535Z,640
2017-06-28T07:42:27.834Z,755
2017-06-28T07:43:27.538Z,750
2017-06-28T07:44:27.866Z,815
2017-06-28T07:45:27.236Z,575
2017-06-28T07:46:27.549Z,605
2017-06-28T07:47:27.565Z,535
2017-06-28T07:48:27.605Z,510
2017-06-28T07:49:27.576Z,495
2017-06-28T07:50:26.980Z,475
2017-06-28T07:51:27.620Z,495
2017-06-28T07:52:27.947Z,535
2017-06-28T07:53:27.320Z,535
2017-06-28T07:54:27.315Z,510
2017-06-28T07:55:27.653Z,490
2017-06-28T07:56:27.641Z,450
2017-06-28T07:57:27.664Z,405
2017-06-28T07:58:27.987Z,390
2017-06-28T07:59:27.991Z,375
2017-06-28T08:00:27.669Z,370
2017-06-28T08:01:27.675Z,365
2017-06-28T08:02:27.364Z,360
2017-06-28T08:03:27.693Z,360
2017-06-28T08:04:27.062Z,350
2017-06-28T08:05:27.710Z,345
2017-06-28T08:06:28.037Z,330
2017-06-28T08:07:28.046Z,310
2017-06-28T08:08:27.768Z,285
2017-06-28T08:09:27.757Z,260
2017-06-28T08:10:27.434Z,245
2017-06-28T08:11:27.745Z,220
2017-06-28T08:12:27.754Z,205
2017-06-28T08:13:28.087Z,200
2017-06-28T08:14:28.097Z,200
2017-06-28T08:15:27.450Z,205
2017-06-28T08:16:27.780Z,200
2017-06-28T08:17:28.120Z,195
2017-06-28T08:18:27.143Z,195
2017-06-28T08:19:27.474Z,190
2017-06-28T08:20:27.473Z,195
2017-06-28T08:21:27.815Z,195
2017-06-28T08:22:28.147Z,200
2017-06-28T08:23:27.504Z,205
2017-06-28T08:24:27.828Z,200
2017-06-28T08:25:27.178Z,205
2017-06-28T08:26:27.826Z,210
2017-06-28T08:27:27.835Z,205
2017-06-28T08:28:28.198Z,185
2017-06-28T08:29:27.522Z,155
2017-06-28T08:30:27.861Z,135
2017-06-28T08:31:27.859Z,130
2017-06-28T08:32:28.168Z,130
2017-06-28T08:33:27.855Z,125
2017-06-28T08:34:28.189Z,115
2017-06-28T08:35:27.555Z,75
2017-06-28T08:36:27.882Z,65
2017-06-28T08:37:28.215Z,75
2017-06-28T08:38:27.554Z,80
2017-06-28T08:39:28.198Z,75
2017-06-28T08:40:27.896Z,85
2017-06-28T08:41:27.874Z,120
2017-06-28T08:42:27.560Z,110
2017-06-28T08:43:27.243Z,110
2017-06-28T08:44:27.250Z,140
2017-06-28T08:45:27.577Z,160
2017-06-28T08:46:28.214Z,150
2017-06-28T08:47:28.240Z,135
2017-06-28T08:48:27.257Z,125
2017-06-28T08:49:27.306Z,120
2017-06-28T08:50:28.236Z,120
2017-06-28T08:51:27.916Z,125
2017-06-28T08:52:27.614Z,135
2017-06-28T08:53:27.932Z,145
2017-06-28T08:54:27.616Z,155
2017-06-28T08:55:27.914Z,160
2017-06-28T08:56:27.614Z,165
2017-06-28T08:57:27.601Z,180
2017-06-28T08:58:27.919Z,190
2017-06-28T08:59:27.613Z,195
2017-06-28T09:00:27.614Z,195
2017-06-28T09:01:27.601Z,205
2017-06-28T09:02:28.262Z,215
2017-06-28T09:03:27.947Z,220
2017-06-28T09:04:28.252Z,215
2017-06-28T09:05:28.257Z,210
2017-06-28T09:06:27.930Z,210
2017-06-28T09:07:27.944Z,225
2017-06-28T09:08:28.260Z,235
2017-06-28T09:09:27.289Z,265
2017-06-28T09:10:27.634Z,280
2017-06-28T09:11:27.613Z,270
2017-06-28T09:12:27.961Z,255
2017-06-28T09:13:27.622Z,235
2017-06-28T09:14:28.255Z,225
2017-06-28T09:15:27.942Z,225
2017-06-28T09:16:27.939Z,240
2017-06-28T09:17:27.624Z,245
2017-06-28T09:18:27.619Z,255
2017-06-28T09:19:27.628Z,255
2017-06-28T09:20:28.269Z,235
2017-06-28T09:21:27.325Z,210
2017-06-28T09:22:27.976Z,220
2017-06-28T09:23:28.275Z,235
2017-06-28T09:24:28.274Z,230
2017-06-28T09:25:27.953Z,215
2017-06-28T09:26:27.712Z,200
2017-06-28T09:27:27.315Z,185
2017-06-28T09:28:27.956Z,170
2017-06-28T09:29:28.000Z,175
2017-06-28T09:30:27.336Z,180
2017-06-28T09:31:27.959Z,175
2017-06-28T09:32:27.320Z,150
2017-06-28T09:33:28.303Z,145
2017-06-28T09:34:27.990Z,150
2017-06-28T09:35:27.978Z,155
2017-06-28T09:36:28.284Z,190
2017-06-28T09:37:27.645Z,180
2017-06-28T09:38:28.288Z,160
2017-06-28T09:39:27.650Z,170
2017-06-28T09:40:27.969Z,175
2017-06-28T09:41:28.320Z,160
2017-06-28T09:42:27.666Z,145
2017-06-28T09:43:28.311Z,185
2017-06-28T09:44:27.687Z,200
2017-06-28T09:45:27.016Z,220
2017-06-28T09:46:27.659Z,225
2017-06-28T09:47:27.975Z,220
2017-06-28T09:48:27.666Z,225
2017-06-28T09:49:27.977Z,220
2017-06-28T09:50:28.014Z,230
2017-06-28T09:51:27.350Z,235
2017-06-28T09:52:27.673Z,235
2017-06-28T09:53:27.981Z,235
2017-06-28T09:54:28.337Z,245
2017-06-28T09:55:28.301Z,255
2017-06-28T09:56:27.979Z,255
2017-06-28T09:57:28.012Z,270
2017-06-28T09:58:27.988Z,275
2017-06-28T09:59:28.322Z,295
2017-06-28T10:00:28.309Z,345
2017-06-28T10:01:27.981Z,390
2017-06-28T10:02:27.657Z,480
2017-06-28T10:03:27.980Z,530
2017-06-28T10:04:28.324Z,550
2017-06-28T10:05:27.663Z,565
2017-06-28T10:06:28.320Z,500
2017-06-28T10:07:27.673Z,460
2017-06-28T10:08:28.323Z,535
2017-06-28T10:09:27.367Z,555
2017-06-28T10:10:28.310Z,600
2017-06-28T10:11:27.983Z,630
2017-06-28T10:12:27.684Z,710
2017-06-28T10:13:27.674Z,720
2017-06-28T10:14:28.000Z,680
2017-06-28T10:15:27.691Z,670
2017-06-28T10:16:27.029Z,640
2017-06-28T10:17:28.322Z,630
2017-06-28T10:18:27.999Z,635
2017-06-28T10:19:28.320Z,640
2017-06-28T10:20:27.686Z,685
2017-06-28T10:21:28.011Z,685
2017-06-28T10:22:28.325Z,700
2017-06-28T10:23:28.057Z,715
2017-06-28T10:24:28.353Z,710
2017-06-28T10:25:27.712Z,705
2017-06-28T10:26:28.013Z,700
2017-06-28T10:27:28.020Z,675
2017-06-28T10:28:27.802Z,655
2017-06-28T10:29:28.351Z,625
2017-06-28T10:30:27.069Z,590
2017-06-28T10:31:27.387Z,560
2017-06-28T10:32:28.356Z,550
2017-06-28T10:33:28.368Z,540
2017-06-28T10:34:28.367Z,535
2017-06-28T10:35:28.373Z,530
2017-06-28T10:36:27.726Z,520
2017-06-28T10:37:28.370Z,510
2017-06-28T10:38:28.378Z,535
2017-06-28T10:39:27.758Z,565
2017-06-28T10:40:27.421Z,580
2017-06-28T10:41:28.089Z,610
2017-06-28T10:42:27.742Z,625
2017-06-28T10:43:27.769Z,620
2017-06-28T10:44:27.758Z,600
2017-06-28T10:45:27.756Z,615
2017-06-28T10:46:28.406Z,630
2017-06-28T10:47:27.767Z,620
2017-06-28T10:48:28.418Z,600
2017-06-28T10:49:28.096Z,595
2017-06-28T10:50:28.106Z,595
2017-06-28T10:51:28.450Z,590
2017-06-28T10:52:28.150Z,590
2017-06-28T10:53:28.113Z,580
2017-06-28T10:54:27.801Z,535
2017-06-28T10:55:27.483Z,480
2017-06-28T10:56:28.130Z,425
2017-06-28T10:57:27.811Z,385
2017-06-28T10:58:27.819Z,370
2017-06-28T10:59:28.163Z,365
2017-06-28T11:00:28.165Z,350
2017-06-28T11:01:27.846Z,320
2017-06-28T11:02:28.150Z,295
2017-06-28T11:03:28.158Z,275
2017-06-28T11:04:28.164Z,260
2017-06-28T11:05:28.511Z,250
2017-06-28T11:06:27.210Z,255
2017-06-28T11:07:28.513Z,245
2017-06-28T11:08:28.180Z,240
2017-06-28T11:09:27.869Z,235
2017-06-28T11:10:28.182Z,230
2017-06-28T11:11:28.189Z,225
2017-06-28T11:12:27.868Z,240
2017-06-28T11:13:28.209Z,255
2017-06-28T11:14:28.203Z,265
2017-06-28T11:15:27.875Z,285
2017-06-28T11:16:28.207Z,320
2017-06-28T11:17:27.892Z,360
2017-06-28T11:18:28.258Z,385
2017-06-28T11:19:28.240Z,390
2017-06-28T11:20:27.575Z,405
2017-06-28T11:21:28.235Z,415
2017-06-28T11:22:27.924Z,420
2017-06-28T11:23:28.546Z,395
2017-06-28T11:24:27.912Z,370
2017-06-28T11:25:27.590Z,360
2017-06-28T11:26:27.915Z,385
2017-06-28T11:27:28.269Z,435
2017-06-28T11:28:28.246Z,515
2017-06-28T11:29:28.250Z,590
2017-06-28T11:30:28.243Z,640
2017-06-28T11:31:28.606Z,665
2017-06-28T11:32:28.254Z,670
2017-06-28T11:33:27.934Z,655
2017-06-28T11:34:28.584Z,640
2017-06-28T11:35:27.619Z,625
2017-06-28T11:36:28.588Z,610
2017-06-28T11:37:27.952Z,600
2017-06-28T11:38:28.283Z,615
2017-06-28T11:39:28.287Z,655
2017-06-28T11:40:27.959Z,695
2017-06-28T11:41:28.603Z,710
2017-06-28T11:42:27.976Z,725
2017-06-28T11:43:28.624Z,715
2017-06-28T11:44:27.988Z,700
2017-06-28T11:45:27.995Z,680
2017-06-28T11:46:27.999Z,650
2017-06-28T11:47:28.302Z,640
2017-06-28T11:48:28.032Z,615
2017-06-28T11:49:27.997Z,580
2017-06-28T11:50:28.316Z,585
2017-06-28T11:51:28.323Z,610
2017-06-28T11:52:28.342Z,580
2017-06-28T11:53:28.332Z,520
2017-06-28T11:54:28.659Z,500
2017-06-28T11:55:28.330Z,475
2017-06-28T11:56:28.020Z,455
2017-06-28T11:57:28.345Z,400
2017-06-28T11:58:28.350Z,355
2017-06-28T11:59:28.092Z,305
2017-06-28T12:00:28.035Z,330
2017-06-28T12:01:28.048Z,355
2017-06-28T12:02:28.053Z,410
2017-06-28T12:03:27.725Z,445
2017-06-28T12:04:28.703Z,470
2017-06-28T12:05:28.370Z,455
2017-06-28T12:06:28.400Z,400
2017-06-28T12:07:28.382Z,440
2017-06-28T12:08:28.101Z,480
2017-06-28T12:09:28.413Z,505
2017-06-28T12:10:28.731Z,455
2017-06-28T12:11:28.109Z,400
2017-06-28T12:12:28.397Z,400
2017-06-28T12:13:28.745Z,375
2017-06-28T12:14:28.429Z,350
2017-06-28T12:15:28.728Z,435
2017-06-28T12:16:28.090Z,535
2017-06-28T12:17:28.412Z,535
2017-06-28T12:18:28.424Z,515
2017-06-28T12:19:28.430Z,495
2017-06-28T12:20:28.107Z,505
2017-06-28T12:21:28.437Z,585
2017-06-28T12:22:28.442Z,630
2017-06-28T12:23:28.438Z,640
2017-06-28T12:24:28.770Z,640
2017-06-28T12:25:28.443Z,635
2017-06-28T12:26:27.806Z,620
2017-06-28T12:27:28.130Z,610
2017-06-28T12:28:28.787Z,595
2017-06-28T12:29:28.134Z,575
2017-06-28T12:30:28.188Z,550
2017-06-28T12:31:28.469Z,525
2017-06-28T12:32:28.470Z,510
2017-06-28T12:33:28.486Z,495
2017-06-28T12:34:28.492Z,500
2017-06-28T12:35:28.485Z,500
2017-06-28T12:36:27.862Z,490
2017-06-28T12:37:28.493Z,485
2017-06-28T12:38:28.493Z,475
2017-06-28T12:39:28.505Z,490
2017-06-28T12:40:28.176Z,505
2017-06-28T12:41:28.184Z,500
2017-06-28T12:42:28.851Z,515
2017-06-28T12:43:28.189Z,525
2017-06-28T12:44:28.836Z,550
2017-06-28T12:45:28.853Z,590
2017-06-28T12:46:28.568Z,585
2017-06-28T12:47:28.868Z,580
2017-06-28T12:48:28.217Z,545
2017-06-28T12:49:28.858Z,510
2017-06-28T12:50:28.537Z,545
2017-06-28T12:51:28.543Z,530
2017-06-28T12:52:28.223Z,460
2017-06-28T12:53:28.234Z,405
2017-06-28T12:54:28.243Z,385
2017-06-28T12:55:28.236Z,375
2017-06-28T12:56:28.884Z,365
2017-06-28T12:57:28.890Z,345
2017-06-28T12:58:28.252Z,300
2017-06-28T12:59:28.596Z,300
2017-06-28T13:00:28.291Z,295
2017-06-28T13:01:28.588Z,295
2017-06-28T13:02:28.591Z,280
2017-06-28T13:03:28.910Z,290
2017-06-28T13:04:28.600Z,300
2017-06-28T13:05:28.612Z,330
2017-06-28T13:06:28.597Z,330
2017-06-28T13:07:28.604Z,300
2017-06-28T13:08:28.609Z,250
2017-06-28T13:09:28.612Z,230
2017-06-28T13:10:28.309Z,215
2017-06-28T13:11:28.625Z,200
2017-06-28T13:12:28.309Z,195
2017-06-28T13:13:28.355Z,185
2017-06-28T13:14:28.954Z,185
2017-06-28T13:15:28.628Z,185
2017-06-28T13:16:28.958Z,175
2017-06-28T13:17:27.994Z,170
2017-06-28T13:18:28.319Z,170
2017-06-28T13:19:28.979Z,180
2017-06-28T13:20:28.336Z,180
2017-06-28T13:21:28.338Z,205
2017-06-28T13:22:28.999Z,200
2017-06-28T13:23:28.674Z,260
2017-06-28T13:24:28.066Z,280
2017-06-28T13:25:28.055Z,225
2017-06-28T13:26:28.366Z,220
2017-06-28T13:27:28.991Z,280
2017-06-28T13:28:28.673Z,280
2017-06-28T13:29:29.001Z,295
2017-06-28T13:30:28.038Z,250
2017-06-28T13:31:28.373Z,220
2017-06-28T13:32:28.369Z,180
2017-06-28T13:33:28.695Z,185
2017-06-28T13:34:28.712Z,180
2017-06-28T13:35:28.393Z,185
2017-06-28T13:36:28.380Z,170
2017-06-28T13:37:28.425Z,165
2017-06-28T13:38:29.030Z,185
2017-06-28T13:39:28.409Z,205
2017-06-28T13:40:28.711Z,240
2017-06-28T13:41:28.714Z,240
2017-06-28T13:42:28.407Z,260
2017-06-28T13:43:28.083Z,245
2017-06-28T13:44:28.734Z,200
2017-06-28T13:45:28.407Z,170
2017-06-28T13:46:28.741Z,230
2017-06-28T13:47:28.736Z,325
2017-06-28T13:48:28.431Z,280
2017-06-28T13:49:29.096Z,240
2017-06-28T13:50:28.446Z,255
2017-06-28T13:51:28.105Z,305
2017-06-28T13:52:28.752Z,325
2017-06-28T13:53:28.760Z,290
2017-06-28T13:54:29.075Z,245
2017-06-28T13:55:28.438Z,240
2017-06-28T13:56:28.803Z,235
2017-06-28T13:57:28.768Z,220
2017-06-28T13:58:28.776Z,215
2017-06-28T13:59:28.822Z,205
2017-06-28T14:00:28.479Z,205
2017-06-28T14:01:28.468Z,215